createdAt,value
2023-04-26T00:00:09.700Z,0.00
2023-04-26T00:01:09.857Z,0.00
2023-04-26T00:02:09.998Z,0.00
2023-04-26T00:03:10.383Z,0.00
2023-04-26T00:04:10.649Z,0.00
2023-04-26T00:05:10.797Z,0.00
2023-04-26T00:06:10.736Z,0.00
2023-04-26T00:07:11.795Z,0.00
2023-04-26T00:08:11.019Z,0.00
2023-04-26T00:09:11.171Z,0.00
2023-04-26T00:10:11.303Z,0.00
2023-04-26T00:11:11.446Z,0.00
2023-04-26T00:12:11.587Z,0.00
2023-04-26T00:13:11.764Z,0.00
2023-04-26T00:14:11.897Z,0.00
2023-04-26T00:15:12.029Z,0.00
2023-04-26T00:16:12.194Z,0.00
2023-04-26T00:17:12.322Z,0.00
2023-04-26T00:18:12.552Z,0.00
2023-04-26T00:19:13.555Z,0.00
2023-04-26T00:20:12.825Z,0.00
2023-04-26T00:21:12.951Z,0.00
2023-04-26T00:22:13.092Z,0.00
2023-04-26T00:23:13.259Z,0.00
2023-04-26T00:24:13.405Z,0.00
2023-04-26T00:25:13.554Z,0.00
2023-04-26T00:26:13.673Z,0.00
2023-04-26T00:27:13.816Z,0.00
2023-04-26T00:28:13.982Z,0.00
2023-04-26T00:29:14.137Z,0.00
2023-04-26T00:30:14.269Z,0.00
2023-04-26T00:31:14.429Z,0.00
2023-04-26T00:32:14.554Z,0.00
2023-04-26T00:33:14.710Z,0.00
2023-04-26T00:34:14.838Z,0.00
2023-04-26T00:35:14.989Z,0.00
2023-04-26T00:36:15.158Z,0.00
2023-04-26T00:37:15.293Z,0.00
2023-04-26T00:38:15.453Z,0.00
2023-04-26T00:39:15.602Z,0.00
2023-04-26T00:40:15.741Z,0.00
2023-04-26T00:41:15.890Z,0.00
2023-04-26T00:42:16.039Z,0.00
2023-04-26T00:43:16.194Z,0.00
2023-04-26T00:44:16.357Z,0.00
2023-04-26T00:45:16.491Z,0.00
2023-04-26T00:46:16.664Z,0.00
2023-04-26T00:47:16.786Z,0.00
2023-04-26T00:48:16.945Z,0.00
2023-04-26T00:49:17.096Z,0.00
2023-04-26T00:50:17.217Z,0.00
2023-04-26T00:51:17.366Z,0.00
2023-04-26T00:52:17.526Z,0.00
2023-04-26T00:53:17.696Z,0.00
2023-04-26T00:54:17.828Z,0.00
2023-04-26T00:55:17.973Z,0.00
2023-04-26T00:56:18.129Z,0.00
2023-04-26T00:57:18.272Z,0.00
2023-04-26T00:58:18.419Z,0.00
2023-04-26T00:59:18.593Z,0.00
2023-04-26T01:00:18.737Z,0.00
2023-04-26T01:01:18.981Z,0.00
2023-04-26T01:02:19.189Z,0.00
2023-04-26T01:03:19.445Z,0.00
2023-04-26T01:04:19.565Z,0.00
2023-04-26T01:05:19.624Z,0.00
2023-04-26T01:06:19.822Z,0.00
2023-04-26T01:07:19.958Z,0.00
2023-04-26T01:08:20.126Z,0.00
2023-04-26T01:09:20.276Z,0.00
2023-04-26T01:10:20.449Z,0.00
2023-04-26T01:11:20.594Z,0.00
2023-04-26T01:12:20.747Z,0.00
2023-04-26T01:13:20.929Z,0.00
2023-04-26T01:14:21.094Z,0.00
2023-04-26T01:15:21.252Z,0.00
2023-04-26T01:16:21.443Z,0.00
2023-04-26T01:17:21.612Z,0.00
2023-04-26T01:18:21.781Z,0.00
2023-04-26T01:19:21.957Z,0.00
2023-04-26T01:20:22.124Z,0.00
2023-04-26T01:21:22.282Z,0.00
2023-04-26T01:22:22.448Z,0.00
2023-04-26T01:23:22.629Z,0.00
2023-04-26T01:24:22.772Z,0.00
2023-04-26T01:25:22.933Z,0.00
2023-04-26T01:26:23.081Z,0.00
2023-04-26T01:27:23.232Z,0.00
2023-04-26T01:28:23.432Z,0.00
2023-04-26T01:29:23.573Z,0.00
2023-04-26T01:30:23.734Z,0.00
2023-04-26T01:31:23.913Z,0.00
2023-04-26T01:32:24.072Z,0.00
2023-04-26T01:33:24.255Z,0.00
2023-04-26T01:34:24.409Z,0.00
2023-04-26T01:35:24.584Z,0.00
2023-04-26T01:36:24.755Z,0.00
2023-04-26T01:37:24.933Z,0.00
2023-04-26T01:38:25.117Z,0.00
2023-04-26T01:39:25.285Z,0.00
2023-04-26T01:40:25.451Z,0.00
2023-04-26T01:41:25.601Z,0.00
2023-04-26T01:42:25.770Z,0.00
2023-04-26T01:43:25.960Z,0.00
2023-04-26T01:44:26.114Z,0.00
2023-04-26T01:45:26.285Z,0.00
2023-04-26T01:46:26.473Z,0.00
2023-04-26T01:47:26.709Z,0.00
2023-04-26T01:48:26.841Z,0.00
2023-04-26T01:49:27.010Z,0.00
2023-04-26T01:50:27.155Z,0.00
2023-04-26T01:51:27.332Z,0.00
2023-04-26T01:52:27.483Z,0.00
2023-04-26T01:53:27.674Z,0.00
2023-04-26T01:54:27.827Z,0.00
2023-04-26T01:55:27.981Z,0.00
2023-04-26T01:56:28.129Z,0.00
2023-04-26T01:57:28.297Z,0.00
2023-04-26T01:58:28.456Z,0.00
2023-04-26T01:59:28.610Z,0.00
2023-04-26T02:00:28.772Z,0.00
2023-04-26T02:01:28.964Z,0.00
2023-04-26T02:02:29.134Z,0.00
2023-04-26T02:03:29.341Z,0.00
2023-04-26T02:04:29.488Z,0.00
2023-04-26T02:05:29.650Z,0.00
2023-04-26T02:06:29.783Z,0.00
2023-04-26T02:07:29.970Z,0.00
2023-04-26T02:08:30.156Z,0.00
2023-04-26T02:09:30.303Z,0.00
2023-04-26T02:10:30.487Z,0.00
2023-04-26T02:11:30.635Z,0.00
2023-04-26T02:12:30.778Z,0.00
2023-04-26T02:13:30.976Z,0.00
2023-04-26T02:14:31.153Z,0.00
2023-04-26T02:15:31.308Z,0.00
2023-04-26T02:16:31.578Z,0.00
2023-04-26T02:17:31.712Z,0.00
2023-04-26T02:18:31.852Z,0.00
2023-04-26T02:19:32.013Z,0.00
2023-04-26T02:20:32.173Z,0.00
2023-04-26T02:21:32.358Z,0.00
2023-04-26T02:22:32.492Z,0.00
2023-04-26T02:23:32.697Z,0.00
2023-04-26T02:24:33.520Z,0.00
2023-04-26T02:25:33.125Z,0.00
2023-04-26T02:26:33.290Z,0.00
2023-04-26T02:27:33.453Z,0.00
2023-04-26T02:28:33.637Z,0.00
2023-04-26T02:29:42.992Z,0.00
2023-04-26T02:30:34.925Z,0.00
2023-04-26T02:31:34.110Z,0.00
2023-04-26T02:32:34.303Z,0.00
2023-04-26T02:33:34.436Z,0.00
2023-04-26T02:34:34.627Z,0.00
2023-04-26T02:35:34.776Z,0.00
2023-04-26T02:36:34.958Z,0.00
2023-04-26T02:37:35.144Z,0.00
2023-04-26T02:38:35.331Z,0.00
2023-04-26T02:39:35.487Z,0.00
2023-04-26T02:40:35.661Z,0.00
2023-04-26T02:41:35.926Z,0.00
2023-04-26T02:42:36.035Z,0.00
2023-04-26T02:43:36.225Z,0.00
2023-04-26T02:44:36.401Z,0.00
2023-04-26T02:45:36.543Z,0.00
2023-04-26T02:46:36.772Z,0.00
2023-04-26T02:47:36.972Z,0.00
2023-04-26T02:48:37.136Z,0.00
2023-04-26T02:49:37.314Z,0.00
2023-04-26T02:50:37.497Z,0.00
2023-04-26T02:51:37.643Z,0.00
2023-04-26T02:52:37.803Z,0.00
2023-04-26T02:53:38.010Z,0.00
2023-04-26T02:54:38.178Z,0.00
2023-04-26T02:55:38.361Z,0.00
2023-04-26T02:56:38.577Z,0.00
2023-04-26T02:57:38.730Z,0.00
2023-04-26T02:58:38.899Z,0.00
2023-04-26T02:59:39.089Z,0.00
2023-04-26T03:00:39.257Z,0.00
2023-04-26T03:01:39.549Z,0.00
2023-04-26T03:02:39.687Z,0.00
2023-04-26T03:03:39.804Z,0.00
2023-04-26T03:04:39.998Z,0.00
2023-04-26T03:05:40.161Z,0.00
2023-04-26T03:06:40.340Z,0.00
2023-04-26T03:07:40.495Z,0.00
2023-04-26T03:08:40.688Z,0.00
2023-04-26T03:09:40.874Z,0.00
2023-04-26T03:10:41.069Z,0.00
2023-04-26T03:11:41.239Z,0.00
2023-04-26T03:12:41.417Z,4.00
2023-04-26T03:13:41.583Z,4.00
2023-04-26T03:14:41.743Z,4.00
2023-04-26T03:15:41.921Z,0.00
2023-04-26T03:16:42.139Z,4.00
2023-04-26T03:17:42.348Z,4.00
2023-04-26T03:18:42.547Z,4.00
2023-04-26T03:19:42.732Z,8.00
2023-04-26T03:20:42.925Z,4.00
2023-04-26T03:21:43.106Z,8.00
2023-04-26T03:22:43.298Z,12.00
2023-04-26T03:23:43.510Z,12.00
2023-04-26T03:24:43.676Z,16.00
2023-04-26T03:25:43.851Z,16.00
2023-04-26T03:26:44.076Z,16.00
2023-04-26T03:27:44.236Z,20.00
2023-04-26T03:28:44.426Z,24.00
2023-04-26T03:29:44.604Z,24.00
2023-04-26T03:30:44.830Z,28.00
2023-04-26T03:31:45.005Z,36.00
2023-04-26T03:32:45.176Z,40.00
2023-04-26T03:33:45.305Z,48.00
2023-04-26T03:34:45.533Z,56.00
2023-04-26T03:35:45.710Z,60.00
2023-04-26T03:36:45.925Z,72.00
2023-04-26T03:37:46.103Z,80.00
2023-04-26T03:38:46.323Z,88.00
2023-04-26T03:39:46.521Z,96.00
2023-04-26T03:40:46.710Z,108.00
2023-04-26T03:41:46.911Z,124.00
2023-04-26T03:42:47.133Z,136.00
2023-04-26T03:43:47.329Z,148.00
2023-04-26T03:44:47.533Z,168.00
2023-04-26T03:45:47.769Z,180.00
2023-04-26T03:46:47.937Z,204.00
2023-04-26T03:47:48.184Z,224.00
2023-04-26T03:48:48.351Z,244.00
2023-04-26T03:49:48.563Z,260.00
2023-04-26T03:50:48.780Z,284.00
2023-04-26T03:51:48.985Z,312.00
2023-04-26T03:52:49.204Z,336.00
2023-04-26T03:53:49.404Z,364.00
2023-04-26T03:54:49.603Z,392.00
2023-04-26T03:55:49.802Z,424.00
2023-04-26T03:56:50.015Z,456.00
2023-04-26T03:57:50.212Z,488.00
2023-04-26T03:58:50.750Z,520.00
2023-04-26T03:59:50.634Z,556.00
2023-04-26T04:00:50.890Z,592.00
2023-04-26T04:01:51.057Z,628.00
2023-04-26T04:02:51.341Z,664.00
2023-04-26T04:03:51.519Z,704.00
2023-04-26T04:04:51.764Z,744.00
2023-04-26T04:05:51.774Z,792.00
2023-04-26T04:06:51.952Z,836.00
2023-04-26T04:07:52.163Z,880.00
2023-04-26T04:08:52.710Z,928.00
2023-04-26T04:09:52.533Z,972.00
2023-04-26T04:10:52.742Z,1016.00
2023-04-26T04:11:52.932Z,1068.00
2023-04-26T04:12:53.132Z,1116.00
2023-04-26T04:13:53.345Z,1164.00
2023-04-26T04:14:53.564Z,1212.00
2023-04-26T04:15:53.837Z,1260.00
2023-04-26T04:16:53.915Z,1308.00
2023-04-26T04:17:54.145Z,1356.00
2023-04-26T04:18:54.585Z,1404.00
2023-04-26T04:19:54.534Z,1452.00
2023-04-26T04:20:54.728Z,1500.00
2023-04-26T04:21:54.932Z,1548.00
2023-04-26T04:22:55.138Z,1600.00
2023-04-26T04:23:55.375Z,1648.00
2023-04-26T04:24:55.592Z,1700.00
2023-04-26T04:25:55.791Z,1748.00
2023-04-26T04:26:56.019Z,1796.00
2023-04-26T04:27:56.224Z,1848.00
2023-04-26T04:28:56.452Z,1900.00
2023-04-26T04:29:56.661Z,1952.00
2023-04-26T04:30:56.929Z,2004.00
2023-04-26T04:31:57.138Z,2056.00
2023-04-26T04:32:57.349Z,2108.00
2023-04-26T04:33:57.490Z,2156.00
2023-04-26T04:34:57.612Z,2204.00
2023-04-26T04:35:57.723Z,2252.00
2023-04-26T04:36:57.949Z,2300.00
2023-04-26T04:37:58.148Z,2344.00
2023-04-26T04:38:58.392Z,2388.00
2023-04-26T04:39:58.502Z,2432.00
2023-04-26T04:40:58.709Z,2476.00
2023-04-26T04:41:58.917Z,2528.00
2023-04-26T04:42:59.138Z,2576.00
2023-04-26T04:43:59.355Z,2624.00
2023-04-26T04:44:59.596Z,2668.00
2023-04-26T04:45:59.789Z,2716.00
2023-04-26T04:47:00.053Z,2756.00
2023-04-26T04:48:00.227Z,2800.00
2023-04-26T04:49:00.388Z,2844.00
2023-04-26T04:50:00.673Z,2888.00
2023-04-26T04:51:00.673Z,2924.00
2023-04-26T04:52:00.865Z,2968.00
2023-04-26T04:53:01.064Z,3020.00
2023-04-26T04:54:01.276Z,3064.00
2023-04-26T04:55:01.474Z,3108.00
2023-04-26T04:56:01.667Z,3156.00
2023-04-26T04:57:01.951Z,3200.00
2023-04-26T04:58:02.104Z,3244.00
2023-04-26T04:59:02.317Z,3292.00
2023-04-26T05:00:02.501Z,3340.00
2023-04-26T05:01:02.593Z,3384.00
2023-04-26T05:02:02.821Z,3440.00
2023-04-26T05:03:03.200Z,3488.00
2023-04-26T05:04:03.405Z,3532.00
2023-04-26T05:05:03.528Z,3580.00
2023-04-26T05:06:03.534Z,3636.00
2023-04-26T05:07:03.742Z,3704.00
2023-04-26T05:08:03.933Z,3756.00
2023-04-26T05:09:04.156Z,3808.00
2023-04-26T05:10:04.369Z,3852.00
2023-04-26T05:11:11.543Z,3888.00
2023-04-26T05:12:04.695Z,3940.00
2023-04-26T05:13:04.890Z,3980.00
2023-04-26T05:14:05.203Z,4036.00
2023-04-26T05:15:05.238Z,4080.00
2023-04-26T05:16:05.480Z,4132.00
2023-04-26T05:17:05.629Z,4180.00
2023-04-26T05:18:05.842Z,4240.00
2023-04-26T05:19:08.665Z,4312.00
2023-04-26T05:20:06.210Z,4364.00
2023-04-26T05:21:06.401Z,4412.00
2023-04-26T05:22:06.877Z,4456.00
2023-04-26T05:23:06.741Z,4512.00
2023-04-26T05:24:06.906Z,4584.00
2023-04-26T05:25:07.088Z,4652.00
2023-04-26T05:26:07.254Z,4688.00
2023-04-26T05:27:07.422Z,4740.00
2023-04-26T05:28:07.633Z,4816.00
2023-04-26T05:29:07.818Z,4880.00
2023-04-26T05:30:07.963Z,4960.00
2023-04-26T05:31:10.660Z,5000.00
2023-04-26T05:32:08.507Z,5060.00
2023-04-26T05:33:08.515Z,5128.00
2023-04-26T05:34:08.667Z,5208.00
2023-04-26T05:35:08.828Z,5268.00
2023-04-26T05:36:08.981Z,5304.00
2023-04-26T05:37:09.157Z,5372.00
2023-04-26T05:38:09.324Z,5444.00
2023-04-26T05:39:09.505Z,5496.00
2023-04-26T05:40:09.706Z,5544.00
2023-04-26T05:41:09.882Z,5600.00
2023-04-26T05:42:10.023Z,5684.00
2023-04-26T05:43:10.219Z,5772.00
2023-04-26T05:44:10.353Z,5844.00
2023-04-26T05:45:10.530Z,5924.00
2023-04-26T05:46:10.745Z,6016.00
2023-04-26T05:47:10.895Z,6232.00
2023-04-26T05:48:11.100Z,7828.00
2023-04-26T05:49:11.259Z,11748.00
2023-04-26T05:50:11.396Z,15040.00
2023-04-26T05:51:11.564Z,16064.00
2023-04-26T05:52:11.709Z,17056.00
2023-04-26T05:53:11.871Z,17504.00
2023-04-26T05:54:12.045Z,18816.00
2023-04-26T05:55:12.167Z,18720.00
2023-04-26T05:56:12.332Z,18304.00
2023-04-26T05:57:12.566Z,18656.00
2023-04-26T05:58:12.702Z,19264.00
2023-04-26T05:59:12.875Z,21152.00
2023-04-26T06:00:13.003Z,21408.00
2023-04-26T06:01:13.152Z,21824.00
2023-04-26T06:02:13.300Z,21504.00
2023-04-26T06:03:13.530Z,21856.00
2023-04-26T06:04:13.885Z,24000.00
2023-04-26T06:05:14.092Z,24352.00
2023-04-26T06:06:13.934Z,26112.00
2023-04-26T06:07:14.129Z,26688.00
2023-04-26T06:08:14.228Z,23968.00
2023-04-26T06:09:14.417Z,22176.00
2023-04-26T06:10:14.463Z,23168.00
2023-04-26T06:11:14.609Z,24448.00
2023-04-26T06:12:14.741Z,24800.00
2023-04-26T06:13:14.819Z,23168.00
2023-04-26T06:14:29.360Z,17664.00
2023-04-26T06:15:16.015Z,14656.00
2023-04-26T06:16:15.226Z,14176.00
2023-04-26T06:17:15.442Z,14296.00
2023-04-26T06:18:15.570Z,14360.00
2023-04-26T06:19:15.621Z,14500.00
2023-04-26T06:20:15.710Z,15360.00
2023-04-26T06:21:15.819Z,10816.00
2023-04-26T06:22:15.888Z,15136.00
2023-04-26T06:23:16.081Z,15328.00
2023-04-26T06:24:16.173Z,16768.00
2023-04-26T06:25:16.269Z,15680.00
2023-04-26T06:26:16.354Z,15104.00
2023-04-26T06:27:16.445Z,15060.00
2023-04-26T06:28:16.521Z,15256.00
2023-04-26T06:29:16.713Z,15312.00
2023-04-26T06:30:16.785Z,15460.00
2023-04-26T06:31:17.093Z,15568.00
2023-04-26T06:32:17.022Z,16224.00
2023-04-26T06:33:17.093Z,16480.00
2023-04-26T06:34:17.182Z,16928.00
2023-04-26T06:35:17.268Z,17216.00
2023-04-26T06:36:17.326Z,17856.00
2023-04-26T06:37:17.517Z,18272.00
2023-04-26T06:38:17.604Z,22016.00
2023-04-26T06:39:17.710Z,23808.00
2023-04-26T06:40:17.773Z,18528.00
2023-04-26T06:41:17.850Z,25760.00
2023-04-26T06:42:17.911Z,26816.00
2023-04-26T06:43:18.007Z,27552.00
2023-04-26T06:44:18.064Z,19072.00
2023-04-26T06:45:18.167Z,27296.00
2023-04-26T06:46:18.229Z,27008.00
2023-04-26T06:47:18.381Z,23872.00
2023-04-26T06:48:18.443Z,25248.00
2023-04-26T06:49:18.509Z,26048.00
2023-04-26T06:50:18.613Z,27296.00
2023-04-26T06:51:18.659Z,9748.00
2023-04-26T06:52:20.019Z,10864.00
2023-04-26T06:53:19.503Z,26016.00
2023-04-26T06:55:19.071Z,16992.00
2023-04-26T06:56:19.151Z,32032.00
2023-04-26T06:57:19.218Z,32928.00
2023-04-26T06:58:19.282Z,21440.00
2023-04-26T06:59:19.406Z,28704.00
2023-04-26T07:00:19.538Z,33248.00
2023-04-26T07:01:19.605Z,38464.00
2023-04-26T07:02:19.878Z,44448.00
2023-04-26T07:03:20.275Z,45600.00
2023-04-26T07:04:20.067Z,26816.00
2023-04-26T07:05:19.986Z,52192.00
2023-04-26T07:06:20.033Z,58560.00
2023-04-26T07:07:20.050Z,57728.00
2023-04-26T07:08:20.097Z,12976.00
2023-04-26T07:09:20.213Z,12264.00
2023-04-26T07:10:20.255Z,12836.00
2023-04-26T07:11:20.294Z,27808.00
2023-04-26T07:12:20.368Z,13344.00
2023-04-26T07:13:20.399Z,53536.00
2023-04-26T07:14:20.505Z,56352.00
2023-04-26T07:15:20.602Z,28800.00
2023-04-26T07:16:20.671Z,59488.00
2023-04-26T07:17:20.696Z,55584.00
2023-04-26T07:18:20.785Z,29120.00
2023-04-26T07:19:20.835Z,61632.00
2023-04-26T07:20:20.899Z,14060.00
2023-04-26T07:21:20.938Z,15172.00
2023-04-26T07:22:20.999Z,25472.00
2023-04-26T07:23:21.037Z,60576.00
2023-04-26T07:24:21.105Z,59424.00
2023-04-26T07:25:21.132Z,55072.00
2023-04-26T07:26:21.223Z,53376.00
2023-04-26T07:27:21.264Z,51904.00
2023-04-26T07:28:21.313Z,52928.00
2023-04-26T07:29:21.350Z,56064.00
2023-04-26T07:30:21.398Z,48320.00
2023-04-26T07:31:21.542Z,56160.00
2023-04-26T07:32:21.524Z,55360.00
2023-04-26T07:33:21.690Z,51776.00
2023-04-26T07:34:21.643Z,26976.00
2023-04-26T07:35:21.682Z,60544.00
2023-04-26T07:36:23.170Z,64480.00
2023-04-26T07:37:21.738Z,61952.00
2023-04-26T07:38:21.761Z,29600.00
2023-04-26T07:39:21.793Z,17056.00
2023-04-26T07:40:21.820Z,15588.00
2023-04-26T07:41:21.841Z,18336.00
2023-04-26T07:42:21.903Z,44800.00
2023-04-26T07:43:21.922Z,67872.00
2023-04-26T07:44:21.993Z,66240.00
2023-04-26T07:45:22.094Z,17728.00
2023-04-26T07:46:22.196Z,65280.00
2023-04-26T07:47:22.213Z,12912.00
2023-04-26T07:48:22.227Z,13920.00
2023-04-26T07:49:22.280Z,66976.00
2023-04-26T07:50:22.322Z,67936.00
2023-04-26T07:51:22.340Z,16128.00
2023-04-26T07:52:22.384Z,12000.00
2023-04-26T07:53:22.394Z,15688.00
2023-04-26T07:54:22.585Z,68544.00
2023-04-26T07:55:22.597Z,21696.00
2023-04-26T07:56:22.633Z,71232.00
2023-04-26T07:57:22.652Z,46080.00
2023-04-26T07:58:22.688Z,53760.00
2023-04-26T07:59:22.718Z,26656.00
2023-04-26T08:00:22.741Z,26816.00
2023-04-26T08:01:22.799Z,79904.00
2023-04-26T08:02:29.882Z,77728.00
2023-04-26T08:03:24.156Z,23968.00
2023-04-26T08:04:23.207Z,68032.00
2023-04-26T08:05:23.163Z,38688.00
2023-04-26T08:06:23.055Z,66336.00
2023-04-26T08:07:23.052Z,69824.00
2023-04-26T08:08:23.067Z,69728.00
2023-04-26T08:09:23.080Z,67616.00
2023-04-26T08:10:23.121Z,12196.00
2023-04-26T08:11:23.190Z,7584.00
2023-04-26T08:12:23.216Z,7256.00
2023-04-26T08:13:23.251Z,7396.00
2023-04-26T08:14:23.311Z,6272.00
2023-04-26T08:15:23.341Z,4568.00
2023-04-26T08:16:23.480Z,5432.00
2023-04-26T08:17:23.481Z,6876.00
2023-04-26T08:18:23.496Z,8360.00
2023-04-26T08:19:23.558Z,10768.00
2023-04-26T08:20:23.627Z,14380.00
2023-04-26T08:21:23.710Z,18848.00
2023-04-26T08:22:23.881Z,24064.00
2023-04-26T08:23:23.955Z,34720.00
2023-04-26T08:24:24.028Z,17920.00
2023-04-26T08:25:24.100Z,17696.00
2023-04-26T08:26:24.247Z,19104.00
2023-04-26T08:27:24.401Z,19072.00
2023-04-26T08:28:24.448Z,18304.00
2023-04-26T08:29:24.541Z,17888.00
2023-04-26T08:30:24.728Z,17216.00
2023-04-26T08:31:24.724Z,14796.00
2023-04-26T08:32:24.791Z,13840.00
2023-04-26T08:33:24.823Z,13736.00
2023-04-26T08:34:24.900Z,13688.00
2023-04-26T08:35:24.984Z,13636.00
2023-04-26T08:36:25.063Z,13704.00
2023-04-26T08:37:25.163Z,13852.00
2023-04-26T08:38:25.218Z,13632.00
2023-04-26T08:39:25.335Z,14180.00
2023-04-26T08:40:25.360Z,14952.00
2023-04-26T08:41:25.536Z,14092.00
2023-04-26T08:42:25.612Z,13284.00
2023-04-26T08:43:25.808Z,13908.00
2023-04-26T08:44:25.942Z,14724.00
2023-04-26T08:45:26.012Z,20576.00
2023-04-26T08:46:40.737Z,61888.00
2023-04-26T08:47:26.210Z,78176.00
2023-04-26T08:48:26.263Z,75136.00
2023-04-26T08:49:27.308Z,86208.00
2023-04-26T08:50:26.497Z,84192.00
2023-04-26T08:51:26.543Z,80288.00
2023-04-26T08:52:26.617Z,59264.00
2023-04-26T08:53:26.672Z,32768.00
2023-04-26T08:54:26.714Z,79584.00
2023-04-26T08:55:26.750Z,20640.00
2023-04-26T08:56:26.796Z,20224.00
2023-04-26T08:57:26.819Z,20480.00
2023-04-26T08:58:26.872Z,84352.00
2023-04-26T08:59:26.968Z,93472.00
2023-04-26T09:00:26.999Z,99488.00
2023-04-26T09:01:27.081Z,28896.00
2023-04-26T09:02:27.243Z,35392.00
2023-04-26T09:03:27.294Z,33824.00
2023-04-26T09:04:27.414Z,28672.00
2023-04-26T09:05:27.264Z,30176.00
2023-04-26T09:06:27.256Z,27648.00
2023-04-26T09:07:27.281Z,28640.00
2023-04-26T09:08:27.327Z,30304.00
2023-04-26T09:09:29.445Z,37024.00
2023-04-26T09:10:27.399Z,51552.00
2023-04-26T09:11:28.336Z,46752.00
2023-04-26T09:12:27.538Z,66688.00
2023-04-26T09:13:27.575Z,32832.00
2023-04-26T09:14:27.658Z,25920.00
2023-04-26T09:15:27.716Z,24064.00
2023-04-26T09:16:27.767Z,17856.00
2023-04-26T09:17:27.849Z,13964.00
2023-04-26T09:18:27.841Z,10952.00
2023-04-26T09:19:27.887Z,9128.00
2023-04-26T09:20:28.081Z,8904.00
2023-04-26T09:21:27.953Z,10176.00
2023-04-26T09:22:28.112Z,14280.00
2023-04-26T09:23:29.628Z,19104.00
2023-04-26T09:24:28.284Z,28128.00
2023-04-26T09:25:28.320Z,25152.00
2023-04-26T09:26:28.369Z,26112.00
2023-04-26T09:27:28.412Z,26944.00
2023-04-26T09:28:28.476Z,26464.00
2023-04-26T09:29:28.551Z,21760.00
2023-04-26T09:30:28.652Z,19328.00
2023-04-26T09:31:28.679Z,17920.00
2023-04-26T09:32:28.725Z,16352.00
2023-04-26T09:33:28.810Z,14352.00
2023-04-26T09:34:28.885Z,12476.00
2023-04-26T09:35:28.953Z,10528.00
2023-04-26T09:36:29.002Z,10600.00
2023-04-26T09:37:29.071Z,10952.00
2023-04-26T09:38:30.079Z,11156.00
2023-04-26T09:39:29.258Z,11576.00
2023-04-26T09:40:29.324Z,12780.00
2023-04-26T09:41:29.409Z,14808.00
2023-04-26T09:42:29.465Z,18912.00
2023-04-26T09:43:29.527Z,20832.00
2023-04-26T09:44:29.614Z,40192.00
2023-04-26T09:45:29.673Z,93056.00
2023-04-26T09:46:30.726Z,93504.00
2023-04-26T09:47:29.901Z,90912.00
2023-04-26T09:48:29.940Z,75552.00
2023-04-26T09:49:29.982Z,93344.00
2023-04-26T09:50:30.024Z,90848.00
2023-04-26T09:51:30.040Z,100128.00
2023-04-26T09:52:30.073Z,32608.00
2023-04-26T09:53:30.083Z,28320.00
2023-04-26T09:54:30.125Z,33600.00
2023-04-26T09:56:30.202Z,15680.00
2023-04-26T09:57:30.212Z,13032.00
2023-04-26T09:58:30.256Z,11504.00
2023-04-26T09:59:30.264Z,10224.00
2023-04-26T10:00:30.312Z,9344.00
2023-04-26T10:01:30.771Z,9056.00
2023-04-26T10:02:30.525Z,10140.00
2023-04-26T10:03:30.660Z,12596.00
2023-04-26T10:04:30.723Z,14464.00
2023-04-26T10:05:33.073Z,17376.00
2023-04-26T10:06:30.758Z,20960.00
2023-04-26T10:07:30.786Z,27552.00
2023-04-26T10:08:30.825Z,83232.00
2023-04-26T10:09:30.876Z,69504.00
2023-04-26T10:10:30.908Z,40800.00
2023-04-26T10:11:30.944Z,64608.00
2023-04-26T10:12:31.102Z,107360.00
2023-04-26T10:13:31.156Z,100608.00
2023-04-26T10:14:31.224Z,102432.00
2023-04-26T10:15:31.248Z,71680.00
2023-04-26T10:16:31.438Z,106976.00
2023-04-26T10:17:31.438Z,72512.00
2023-04-26T10:18:31.484Z,46176.00
2023-04-26T10:19:31.504Z,32288.00
2023-04-26T10:20:31.509Z,27456.00
2023-04-26T10:21:31.566Z,21376.00
2023-04-26T10:22:31.557Z,17440.00
2023-04-26T10:23:31.544Z,14924.00
2023-04-26T10:24:31.697Z,12820.00
2023-04-26T10:25:31.738Z,11128.00
2023-04-26T10:26:31.817Z,9828.00
2023-04-26T10:27:31.872Z,9072.00
2023-04-26T10:28:32.033Z,8536.00
2023-04-26T10:29:32.004Z,8132.00
2023-04-26T10:30:32.029Z,7816.00
2023-04-26T10:31:32.065Z,7664.00
2023-04-26T10:32:32.199Z,7888.00
2023-04-26T10:33:32.246Z,7904.00
2023-04-26T10:34:32.313Z,7936.00
2023-04-26T10:35:32.354Z,8516.00
2023-04-26T10:36:32.411Z,8908.00
2023-04-26T10:37:32.454Z,9276.00
2023-04-26T10:38:32.498Z,9676.00
2023-04-26T10:39:32.560Z,10060.00
2023-04-26T10:40:32.653Z,10568.00
2023-04-26T10:41:32.698Z,11052.00
2023-04-26T10:42:32.760Z,11476.00
2023-04-26T10:43:32.829Z,12552.00
2023-04-26T10:44:33.008Z,13532.00
2023-04-26T10:45:33.073Z,14912.00
2023-04-26T10:46:33.360Z,16032.00
2023-04-26T10:47:33.440Z,17152.00
2023-04-26T10:48:33.462Z,19040.00
2023-04-26T10:49:33.546Z,18720.00
2023-04-26T10:50:33.635Z,17344.00
2023-04-26T10:51:33.690Z,17120.00
2023-04-26T10:52:33.894Z,17312.00
2023-04-26T10:53:33.948Z,17824.00
2023-04-26T10:54:34.121Z,18336.00
2023-04-26T10:55:34.193Z,18528.00
2023-04-26T10:56:34.247Z,19264.00
2023-04-26T10:57:34.304Z,19008.00
2023-04-26T10:58:34.379Z,17888.00
2023-04-26T10:59:47.300Z,16384.00
2023-04-26T11:00:35.536Z,14548.00
2023-04-26T11:01:34.624Z,13076.00
2023-04-26T11:02:34.754Z,12188.00
2023-04-26T11:03:35.082Z,11652.00
2023-04-26T11:04:34.972Z,11156.00
2023-04-26T11:05:35.051Z,10920.00
2023-04-26T11:06:35.116Z,10932.00
2023-04-26T11:07:35.289Z,10944.00
2023-04-26T11:08:35.360Z,11636.00
2023-04-26T11:09:35.461Z,12276.00
2023-04-26T11:10:36.695Z,12512.00
2023-04-26T11:11:42.898Z,12760.00
2023-04-26T11:12:35.793Z,13632.00
2023-04-26T11:13:35.867Z,15296.00
2023-04-26T11:14:35.973Z,17280.00
2023-04-26T11:15:36.076Z,18944.00
2023-04-26T11:16:36.193Z,21984.00
2023-04-26T11:17:36.206Z,23136.00
2023-04-26T11:18:36.268Z,25760.00
2023-04-26T11:19:36.375Z,28672.00
2023-04-26T11:20:36.467Z,31264.00
2023-04-26T11:21:36.908Z,26720.00
2023-04-26T11:22:36.636Z,26528.00
2023-04-26T11:23:36.837Z,27456.00
2023-04-26T11:24:36.992Z,29248.00
2023-04-26T11:25:37.035Z,47456.00
2023-04-26T11:26:37.108Z,41696.00
2023-04-26T11:27:37.246Z,34656.00
2023-04-26T11:28:37.324Z,31136.00
2023-04-26T11:29:37.412Z,31968.00
2023-04-26T11:30:37.450Z,27456.00
2023-04-26T11:31:37.517Z,25184.00
2023-04-26T11:32:37.583Z,22464.00
2023-04-26T11:33:37.631Z,19936.00
2023-04-26T11:34:37.689Z,18208.00
2023-04-26T11:35:37.760Z,15968.00
2023-04-26T11:36:37.814Z,13464.00
2023-04-26T11:37:37.853Z,11044.00
2023-04-26T11:38:37.908Z,9040.00
2023-04-26T11:39:38.114Z,7844.00
2023-04-26T11:40:38.144Z,6800.00
2023-04-26T11:41:38.202Z,5960.00
2023-04-26T11:42:38.259Z,5244.00
2023-04-26T11:43:38.371Z,4924.00
2023-04-26T11:44:38.392Z,4556.00
2023-04-26T11:45:38.475Z,4244.00
2023-04-26T11:46:38.589Z,4096.00
2023-04-26T11:47:38.723Z,4252.00
2023-04-26T11:48:38.734Z,4712.00
2023-04-26T11:49:38.992Z,5312.00
2023-04-26T11:50:39.016Z,6020.00
2023-04-26T11:51:39.104Z,6712.00
2023-04-26T11:52:39.171Z,7708.00
2023-04-26T11:53:39.250Z,8848.00
2023-04-26T11:54:39.386Z,10060.00
2023-04-26T11:55:39.483Z,11696.00
2023-04-26T11:56:39.560Z,14028.00
2023-04-26T11:57:39.651Z,17888.00
2023-04-26T11:58:39.767Z,20896.00
2023-04-26T11:59:39.871Z,20960.00
2023-04-26T12:00:39.966Z,21536.00
2023-04-26T12:01:40.075Z,23520.00
2023-04-26T12:02:40.267Z,25120.00
2023-04-26T12:03:40.322Z,25536.00
2023-04-26T12:04:40.590Z,25120.00
2023-04-26T12:05:40.504Z,24992.00
2023-04-26T12:06:40.555Z,24608.00
2023-04-26T12:07:40.622Z,25536.00
2023-04-26T12:08:40.683Z,26496.00
2023-04-26T12:09:40.782Z,28960.00
2023-04-26T12:10:40.864Z,30176.00
2023-04-26T12:11:40.977Z,25984.00
2023-04-26T12:12:41.059Z,19328.00
2023-04-26T12:13:41.153Z,20160.00
2023-04-26T12:14:41.256Z,16004.00
2023-04-26T12:15:41.265Z,16384.00
2023-04-26T12:16:42.816Z,16512.00
2023-04-26T12:17:41.420Z,16032.00
2023-04-26T12:18:41.438Z,14284.00